sensor_id;sensor_type;location;lat;lon;timestamp;temperature;humidity
19060;DHT22;9663;48.996;8.334;2023-05-10T00:02:08;16.80;67.90
19060;DHT22;9663;48.996;8.334;2023-05-10T00:04:34;16.70;67.80
19060;DHT22;9663;48.996;8.334;2023-05-10T00:06:59;16.80;67.90
19060;DHT22;9663;48.996;8.334;2023-05-10T00:09:25;16.90;68.10
19060;DHT22;9663;48.996;8.334;2023-05-10T00:11:51;16.80;68.10
19060;DHT22;9663;48.996;8.334;2023-05-10T00:14:16;16.80;68.20
19060;DHT22;9663;48.996;8.334;2023-05-10T00:16:42;16.80;68.20
19060;DHT22;9663;48.996;8.334;2023-05-10T00:19:08;16.80;68.20
19060;DHT22;9663;48.996;8.334;2023-05-10T00:21:34;16.90;68.20
19060;DHT22;9663;48.996;8.334;2023-05-10T00:24:00;16.80;68.10
19060;DHT22;9663;48.996;8.334;2023-05-10T00:26:25;16.80;68.10
19060;DHT22;9663;48.996;8.334;2023-05-10T00:28:51;16.80;68.00
19060;DHT22;9663;48.996;8.334;2023-05-10T00:31:17;16.80;68.00
19060;DHT22;9663;48.996;8.334;2023-05-10T00:33:43;16.70;68.10
19060;DHT22;9663;48.996;8.334;2023-05-10T00:36:09;16.80;68.10
19060;DHT22;9663;48.996;8.334;2023-05-10T00:38:34;16.80;68.10
19060;DHT22;9663;48.996;8.334;2023-05-10T00:41:00;16.80;68.10
19060;DHT22;9663;48.996;8.334;2023-05-10T00:43:26;16.80;68.20
19060;DHT22;9663;48.996;8.334;2023-05-10T00:45:52;16.70;68.10
19060;DHT22;9663;48.996;8.334;2023-05-10T00:48:18;16.70;68.20
19060;DHT22;9663;48.996;8.334;2023-05-10T00:50:45;16.70;68.20
19060;DHT22;9663;48.996;8.334;2023-05-10T00:53:11;16.70;68.30
19060;DHT22;9663;48.996;8.334;2023-05-10T00:55:37;16.70;68.30
19060;DHT22;9663;48.996;8.334;2023-05-10T00:58:04;16.70;68.40
19060;DHT22;9663;48.996;8.334;2023-05-10T01:00:30;16.70;68.40
19060;DHT22;9663;48.996;8.334;2023-05-10T01:02:58;16.60;68.40
19060;DHT22;9663;48.996;8.334;2023-05-10T01:05:25;16.70;68.50
19060;DHT22;9663;48.996;8.334;2023-05-10T01:07:52;16.70;68.50
19060;DHT22;9663;48.996;8.334;2023-05-10T01:10:18;16.60;68.50
19060;DHT22;9663;48.996;8.334;2023-05-10T01:12:46;16.70;68.70
19060;DHT22;9663;48.996;8.334;2023-05-10T01:15:12;16.70;68.80
19060;DHT22;9663;48.996;8.334;2023-05-10T01:17:42;16.70;68.80
19060;DHT22;9663;48.996;8.334;2023-05-10T01:20:11;16.70;68.80
19060;DHT22;9663;48.996;8.334;2023-05-10T01:32:14;16.60;69.20
19060;DHT22;9663;48.996;8.334;2023-05-10T01:34:53;16.70;69.20
19060;DHT22;9663;48.996;8.334;2023-05-10T01:37:33;16.60;68.90
19060;DHT22;9663;48.996;8.334;2023-05-10T01:40:30;16.60;69.00
19060;DHT22;9663;48.996;8.334;2023-05-10T01:43:04;16.50;69.40
19060;DHT22;9663;48.996;8.334;2023-05-10T01:45:45;16.60;68.90
19060;DHT22;9663;48.996;8.334;2023-05-10T01:48:15;16.50;69.00
19060;DHT22;9663;48.996;8.334;2023-05-10T01:50:43;16.60;68.90
19060;DHT22;9663;48.996;8.334;2023-05-10T01:53:13;16.60;69.00
19060;DHT22;9663;48.996;8.334;2023-05-10T01:55:48;16.60;69.10
19060;DHT22;9663;48.996;8.334;2023-05-10T01:58:21;16.60;69.30
19060;DHT22;9663;48.996;8.334;2023-05-10T02:00:51;16.60;69.20
19060;DHT22;9663;48.996;8.334;2023-05-10T02:03:21;16.60;69.20
19060;DHT22;9663;48.996;8.334;2023-05-10T02:05:50;16.60;69.20
19060;DHT22;9663;48.996;8.334;2023-05-10T02:08:19;16.60;69.20
19060;DHT22;9663;48.996;8.334;2023-05-10T02:10:49;16.70;70.00
19060;DHT22;9663;48.996;8.334;2023-05-10T02:13:18;16.70;69.40
19060;DHT22;9663;48.996;8.334;2023-05-10T02:15:47;16.70;69.40
19060;DHT22;9663;48.996;8.334;2023-05-10T02:18:14;16.70;69.40
19060;DHT22;9663;48.996;8.334;2023-05-10T02:20:44;16.70;69.20
19060;DHT22;9663;48.996;8.334;2023-05-10T02:23:12;16.70;69.20
19060;DHT22;9663;48.996;8.334;2023-05-10T02:25:41;16.70;69.20
19060;DHT22;9663;48.996;8.334;2023-05-10T02:28:08;16.70;69.30
19060;DHT22;9663;48.996;8.334;2023-05-10T02:30:36;16.60;69.20
19060;DHT22;9663;48.996;8.334;2023-05-10T02:33:04;16.70;69.30
19060;DHT22;9663;48.996;8.334;2023-05-10T02:35:32;16.70;69.20
19060;DHT22;9663;48.996;8.334;2023-05-10T02:37:59;16.70;69.20
19060;DHT22;9663;48.996;8.334;2023-05-10T02:40:27;16.70;69.20
19060;DHT22;9663;48.996;8.334;2023-05-10T02:42:55;16.70;69.20
19060;DHT22;9663;48.996;8.334;2023-05-10T02:45:25;16.70;69.20
19060;DHT22;9663;48.996;8.334;2023-05-10T02:47:55;16.70;69.40
19060;DHT22;9663;48.996;8.334;2023-05-10T02:50:22;16.70;69.30
19060;DHT22;9663;48.996;8.334;2023-05-10T02:52:56;17.00;69.50
19060;DHT22;9663;48.996;8.334;2023-05-10T02:55:30;16.60;69.40
19060;DHT22;9663;48.996;8.334;2023-05-10T02:58:02;16.70;69.40
19060;DHT22;9663;48.996;8.334;2023-05-10T03:00:29;16.50;69.40
19060;DHT22;9663;48.996;8.334;2023-05-10T03:02:56;16.70;69.30
19060;DHT22;9663;48.996;8.334;2023-05-10T03:05:22;16.70;69.20
19060;DHT22;9663;48.996;8.334;2023-05-10T03:07:48;16.60;70.10
19060;DHT22;9663;48.996;8.334;2023-05-10T03:10:15;16.50;69.20
19060;DHT22;9663;48.996;8.334;2023-05-10T03:18:22;16.40;69.70
19060;DHT22;9663;48.996;8.334;2023-05-10T03:20:59;16.40;69.50
19060;DHT22;9663;48.996;8.334;2023-05-10T03:23:50;16.30;69.40
19060;DHT22;9663;48.996;8.334;2023-05-10T03:26:23;15.80;69.30
19060;DHT22;9663;48.996;8.334;2023-05-10T03:28:52;16.30;69.50
19060;DHT22;9663;48.996;8.334;2023-05-10T03:31:19;16.20;69.60
19060;DHT22;9663;48.996;8.334;2023-05-10T03:33:50;15.60;69.20
19060;DHT22;9663;48.996;8.334;2023-05-10T03:36:17;16.10;69.70
19060;DHT22;9663;48.996;8.334;2023-05-10T03:38:43;16.10;69.70
19060;DHT22;9663;48.996;8.334;2023-05-10T03:41:09;16.10;69.90
19060;DHT22;9663;48.996;8.334;2023-05-10T03:43:35;16.10;70.00
19060;DHT22;9663;48.996;8.334;2023-05-10T03:46:03;16.10;70.00
19060;DHT22;9663;48.996;8.334;2023-05-10T03:48:29;16.10;70.20
19060;DHT22;9663;48.996;8.334;2023-05-10T03:50:55;15.90;70.00
19060;DHT22;9663;48.996;8.334;2023-05-10T03:53:21;16.10;70.20
19060;DHT22;9663;48.996;8.334;2023-05-10T03:55:47;16.10;70.20
19060;DHT22;9663;48.996;8.334;2023-05-10T03:58:13;16.10;70.20
19060;DHT22;9663;48.996;8.334;2023-05-10T04:00:38;16.10;70.20
19060;DHT22;9663;48.996;8.334;2023-05-10T04:03:09;16.10;70.20
19060;DHT22;9663;48.996;8.334;2023-05-10T04:05:36;16.20;70.30
19060;DHT22;9663;48.996;8.334;2023-05-10T04:08:02;16.20;70.20
19060;DHT22;9663;48.996;8.334;2023-05-10T04:10:28;16.20;70.30
19060;DHT22;9663;48.996;8.334;2023-05-10T04:12:54;16.20;70.30
19060;DHT22;9663;48.996;8.334;2023-05-10T04:15:19;16.80;70.70
19060;DHT22;9663;48.996;8.334;2023-05-10T04:17:46;16.20;70.30
19060;DHT22;9663;48.996;8.334;2023-05-10T04:20:12;16.40;70.50
19060;DHT22;9663;48.996;8.334;2023-05-10T04:22:39;16.30;70.50
19060;DHT22;9663;48.996;8.334;2023-05-10T04:25:05;16.20;70.30
19060;DHT22;9663;48.996;8.334;2023-05-10T04:27:31;16.30;70.50
19060;DHT22;9663;48.996;8.334;2023-05-10T04:29:57;16.40;70.50
19060;DHT22;9663;48.996;8.334;2023-05-10T04:32:23;16.40;70.40
19060;DHT22;9663;48.996;8.334;2023-05-10T04:34:49;16.40;70.40
19060;DHT22;9663;48.996;8.334;2023-05-10T04:37:16;16.00;70.20
19060;DHT22;9663;48.996;8.334;2023-05-10T04:39:43;16.40;70.50
19060;DHT22;9663;48.996;8.334;2023-05-10T04:42:08;16.40;70.40
19060;DHT22;9663;48.996;8.334;2023-05-10T04:44:34;16.50;70.40
19060;DHT22;9663;48.996;8.334;2023-05-10T04:47:00;16.50;70.50
19060;DHT22;9663;48.996;8.334;2023-05-10T04:49:27;16.70;70.60
19060;DHT22;9663;48.996;8.334;2023-05-10T04:51:54;16.60;70.50
19060;DHT22;9663;48.996;8.334;2023-05-10T04:54:19;16.60;70.50
19060;DHT22;9663;48.996;8.334;2023-05-10T04:56:45;16.60;70.50
19060;DHT22;9663;48.996;8.334;2023-05-10T04:59:11;16.70;70.50
19060;DHT22;9663;48.996;8.334;2023-05-10T05:01:36;16.70;70.50
19060;DHT22;9663;48.996;8.334;2023-05-10T05:04:02;16.70;70.50
19060;DHT22;9663;48.996;8.334;2023-05-10T05:06:28;16.70;70.40
19060;DHT22;9663;48.996;8.334;2023-05-10T05:08:54;16.80;70.40
19060;DHT22;9663;48.996;8.334;2023-05-10T05:11:19;16.80;70.40
19060;DHT22;9663;48.996;8.334;2023-05-10T05:13:46;16.80;70.20
19060;DHT22;9663;48.996;8.334;2023-05-10T05:16:12;16.80;70.20
19060;DHT22;9663;48.996;8.334;2023-05-10T05:18:38;16.80;70.20
19060;DHT22;9663;48.996;8.334;2023-05-10T05:21:13;17.10;70.40
19060;DHT22;9663;48.996;8.334;2023-05-10T05:23:40;16.80;70.50
19060;DHT22;9663;48.996;8.334;2023-05-10T05:26:06;16.90;70.40
19060;DHT22;9663;48.996;8.334;2023-05-10T05:28:32;16.80;70.30
19060;DHT22;9663;48.996;8.334;2023-05-10T05:31:00;16.90;70.40
19060;DHT22;9663;48.996;8.334;2023-05-10T05:33:25;16.90;70.30
19060;DHT22;9663;48.996;8.334;2023-05-10T05:35:51;17.30;70.50
19060;DHT22;9663;48.996;8.334;2023-05-10T05:38:17;16.90;70.20
19060;DHT22;9663;48.996;8.334;2023-05-10T05:40:42;17.40;70.60
19060;DHT22;9663;48.996;8.334;2023-05-10T05:43:08;17.00;70.30
19060;DHT22;9663;48.996;8.334;2023-05-10T05:45:34;17.00;70.30
19060;DHT22;9663;48.996;8.334;2023-05-10T05:48:00;17.10;70.30
19060;DHT22;9663;48.996;8.334;2023-05-10T05:50:25;17.10;70.20
19060;DHT22;9663;48.996;8.334;2023-05-10T05:52:51;17.10;70.10
19060;DHT22;9663;48.996;8.334;2023-05-10T05:55:17;17.10;70.10
19060;DHT22;9663;48.996;8.334;2023-05-10T05:57:43;17.10;70.10
19060;DHT22;9663;48.996;8.334;2023-05-10T06:00:09;17.20;70.00
19060;DHT22;9663;48.996;8.334;2023-05-10T06:02:34;17.20;70.00
19060;DHT22;9663;48.996;8.334;2023-05-10T06:05:00;17.20;69.80
19060;DHT22;9663;48.996;8.334;2023-05-10T06:07:26;17.20;69.80
19060;DHT22;9663;48.996;8.334;2023-05-10T06:09:52;17.20;69.80
19060;DHT22;9663;48.996;8.334;2023-05-10T06:12:17;17.30;69.90
19060;DHT22;9663;48.996;8.334;2023-05-10T06:14:43;17.30;69.80
19060;DHT22;9663;48.996;8.334;2023-05-10T06:17:09;17.30;69.80
19060;DHT22;9663;48.996;8.334;2023-05-10T06:19:34;17.30;69.80
19060;DHT22;9663;48.996;8.334;2023-05-10T06:22:01;17.60;69.90
19060;DHT22;9663;48.996;8.334;2023-05-10T06:24:27;17.40;69.90
19060;DHT22;9663;48.996;8.334;2023-05-10T06:26:52;17.20;69.80
19060;DHT22;9663;48.996;8.334;2023-05-10T06:29:18;17.50;70.10
19060;DHT22;9663;48.996;8.334;2023-05-10T06:31:44;17.50;69.80
19060;DHT22;9663;48.996;8.334;2023-05-10T06:34:09;17.60;70.50
19060;DHT22;9663;48.996;8.334;2023-05-10T06:36:36;17.80;69.90
19060;DHT22;9663;48.996;8.334;2023-05-10T06:39:02;17.60;69.60
19060;DHT22;9663;48.996;8.334;2023-05-10T06:41:28;17.70;69.70
19060;DHT22;9663;48.996;8.334;2023-05-10T06:43:54;17.70;69.70
19060;DHT22;9663;48.996;8.334;2023-05-10T06:46:19;17.80;69.60
19060;DHT22;9663;48.996;8.334;2023-05-10T06:48:45;17.80;69.60
19060;DHT22;9663;48.996;8.334;2023-05-10T06:51:11;17.90;69.50
19060;DHT22;9663;48.996;8.334;2023-05-10T06:53:37;18.00;69.50
19060;DHT22;9663;48.996;8.334;2023-05-10T06:56:02;18.00;69.40
19060;DHT22;9663;48.996;8.334;2023-05-10T06:58:28;18.10;69.40
19060;DHT22;9663;48.996;8.334;2023-05-10T07:00:54;18.10;69.40
19060;DHT22;9663;48.996;8.334;2023-05-10T07:03:20;18.20;69.30
19060;DHT22;9663;48.996;8.334;2023-05-10T07:05:45;18.20;69.20
19060;DHT22;9663;48.996;8.334;2023-05-10T07:08:11;18.30;69.20
19060;DHT22;9663;48.996;8.334;2023-05-10T07:10:37;18.40;69.10
19060;DHT22;9663;48.996;8.334;2023-05-10T07:13:03;18.40;69.00
19060;DHT22;9663;48.996;8.334;2023-05-10T07:15:28;18.40;68.60
19060;DHT22;9663;48.996;8.334;2023-05-10T07:17:54;18.40;68.20
19060;DHT22;9663;48.996;8.334;2023-05-10T07:20:20;18.40;68.20
19060;DHT22;9663;48.996;8.334;2023-05-10T07:22:46;18.40;68.20
19060;DHT22;9663;48.996;8.334;2023-05-10T07:25:12;18.40;68.20
19060;DHT22;9663;48.996;8.334;2023-05-10T07:27:37;18.40;68.10
19060;DHT22;9663;48.996;8.334;2023-05-10T07:30:03;18.40;68.00
19060;DHT22;9663;48.996;8.334;2023-05-10T07:32:29;18.30;68.00
19060;DHT22;9663;48.996;8.334;2023-05-10T07:34:55;18.30;68.00
19060;DHT22;9663;48.996;8.334;2023-05-10T07:37:21;18.30;67.90
19060;DHT22;9663;48.996;8.334;2023-05-10T07:39:47;18.30;68.00
19060;DHT22;9663;48.996;8.334;2023-05-10T07:42:12;18.30;68.10
19060;DHT22;9663;48.996;8.334;2023-05-10T07:44:38;18.40;68.30
19060;DHT22;9663;48.996;8.334;2023-05-10T07:47:04;17.20;67.40
19060;DHT22;9663;48.996;8.334;2023-05-10T07:49:29;18.50;68.00
19060;DHT22;9663;48.996;8.334;2023-05-10T07:51:55;18.50;68.00
19060;DHT22;9663;48.996;8.334;2023-05-10T07:54:21;18.60;68.00
19060;DHT22;9663;48.996;8.334;2023-05-10T07:56:47;18.60;67.90
19060;DHT22;9663;48.996;8.334;2023-05-10T07:59:17;18.60;67.70
19060;DHT22;9663;48.996;8.334;2023-05-10T08:01:43;18.70;67.90
19060;DHT22;9663;48.996;8.334;2023-05-10T08:04:09;18.70;67.90
19060;DHT22;9663;48.996;8.334;2023-05-10T08:06:35;18.90;68.20
19060;DHT22;9663;48.996;8.334;2023-05-10T08:09:01;18.90;68.10
19060;DHT22;9663;48.996;8.334;2023-05-10T08:11:27;19.10;68.20
19060;DHT22;9663;48.996;8.334;2023-05-10T08:13:53;19.30;68.40
19060;DHT22;9663;48.996;8.334;2023-05-10T08:16:19;19.40;68.40
19060;DHT22;9663;48.996;8.334;2023-05-10T08:18:46;19.60;68.70
19060;DHT22;9663;48.996;8.334;2023-05-10T08:21:12;19.90;68.20
19060;DHT22;9663;48.996;8.334;2023-05-10T08:23:39;20.00;67.60
19060;DHT22;9663;48.996;8.334;2023-05-10T08:26:05;20.20;67.30
19060;DHT22;9663;48.996;8.334;2023-05-10T08:28:31;20.30;66.90
19060;DHT22;9663;48.996;8.334;2023-05-10T08:30:56;20.40;66.10
19060;DHT22;9663;48.996;8.334;2023-05-10T08:33:22;20.50;65.70
19060;DHT22;9663;48.996;8.334;2023-05-10T08:35:48;20.50;65.90
19060;DHT22;9663;48.996;8.334;2023-05-10T08:38:13;20.60;66.00
19060;DHT22;9663;48.996;8.334;2023-05-10T08:40:41;20.70;65.30
19060;DHT22;9663;48.996;8.334;2023-05-10T08:43:12;20.70;64.40
19060;DHT22;9663;48.996;8.334;2023-05-10T08:45:42;20.70;63.90
19060;DHT22;9663;48.996;8.334;2023-05-10T08:48:11;20.60;64.20
19060;DHT22;9663;48.996;8.334;2023-05-10T08:50:39;20.60;64.30
19060;DHT22;9663;48.996;8.334;2023-05-10T08:53:10;20.60;64.20
19060;DHT22;9663;48.996;8.334;2023-05-10T08:55:38;20.60;64.40
19060;DHT22;9663;48.996;8.334;2023-05-10T08:58:07;20.60;64.20
19060;DHT22;9663;48.996;8.334;2023-05-10T09:00:34;20.60;63.80
19060;DHT22;9663;48.996;8.334;2023-05-10T09:03:03;20.60;63.50
19060;DHT22;9663;48.996;8.334;2023-05-10T09:05:30;20.50;63.30
19060;DHT22;9663;48.996;8.334;2023-05-10T09:07:56;20.40;63.50
19060;DHT22;9663;48.996;8.334;2023-05-10T09:10:22;20.30;63.50
19060;DHT22;9663;48.996;8.334;2023-05-10T09:12:51;20.20;63.70
19060;DHT22;9663;48.996;8.334;2023-05-10T09:15:18;20.10;63.30
19060;DHT22;9663;48.996;8.334;2023-05-10T09:17:45;20.10;63.20
19060;DHT22;9663;48.996;8.334;2023-05-10T09:20:11;19.20;62.50
19060;DHT22;9663;48.996;8.334;2023-05-10T09:22:37;18.90;62.30
19060;DHT22;9663;48.996;8.334;2023-05-10T09:25:14;19.80;62.90
19060;DHT22;9663;48.996;8.334;2023-05-10T09:27:44;19.70;62.70
19060;DHT22;9663;48.996;8.334;2023-05-10T09:30:28;18.10;62.50
19060;DHT22;9663;48.996;8.334;2023-05-10T09:32:57;19.70;62.80
19060;DHT22;9663;48.996;8.334;2023-05-10T09:35:25;19.80;63.40
19060;DHT22;9663;48.996;8.334;2023-05-10T09:37:57;19.90;63.10
19060;DHT22;9663;48.996;8.334;2023-05-10T09:40:25;19.20;62.50
19060;DHT22;9663;48.996;8.334;2023-05-10T09:43:00;19.90;62.90
19060;DHT22;9663;48.996;8.334;2023-05-10T09:45:31;20.20;62.70
19060;DHT22;9663;48.996;8.334;2023-05-10T09:47:59;19.10;62.30
19060;DHT22;9663;48.996;8.334;2023-05-10T09:50:27;20.00;63.30
19060;DHT22;9663;48.996;8.334;2023-05-10T09:52:57;20.20;63.10
19060;DHT22;9663;48.996;8.334;2023-05-10T09:58:04;20.40;62.90
19060;DHT22;9663;48.996;8.334;2023-05-10T10:00:44;20.50;63.50
19060;DHT22;9663;48.996;8.334;2023-05-10T10:03:18;20.80;64.10
19060;DHT22;9663;48.996;8.334;2023-05-10T10:05:46;21.30;63.00
19060;DHT22;9663;48.996;8.334;2023-05-10T10:08:14;21.40;62.50
19060;DHT22;9663;48.996;8.334;2023-05-10T10:10:41;21.50;62.00
19060;DHT22;9663;48.996;8.334;2023-05-10T10:13:09;20.60;60.70
19060;DHT22;9663;48.996;8.334;2023-05-10T10:15:35;21.70;60.30
19060;DHT22;9663;48.996;8.334;2023-05-10T10:18:02;21.60;60.30
19060;DHT22;9663;48.996;8.334;2023-05-10T10:20:29;21.60;60.00
19060;DHT22;9663;48.996;8.334;2023-05-10T10:22:55;21.60;60.20
19060;DHT22;9663;48.996;8.334;2023-05-10T10:25:21;21.50;59.90
19060;DHT22;9663;48.996;8.334;2023-05-10T10:30:48;21.50;59.50
19060;DHT22;9663;48.996;8.334;2023-05-10T10:36:16;21.60;59.40
19060;DHT22;9663;48.996;8.334;2023-05-10T10:41:34;21.80;59.80
19060;DHT22;9663;48.996;8.334;2023-05-10T10:44:33;21.80;59.10
19060;DHT22;9663;48.996;8.334;2023-05-10T10:52:39;21.90;59.10
19060;DHT22;9663;48.996;8.334;2023-05-10T10:55:18;22.00;58.50
19060;DHT22;9663;48.996;8.334;2023-05-10T10:57:54;21.70;58.00
19060;DHT22;9663;48.996;8.334;2023-05-10T11:00:31;21.80;58.60
19060;DHT22;9663;48.996;8.334;2023-05-10T11:03:10;21.80;59.00
19060;DHT22;9663;48.996;8.334;2023-05-10T11:05:49;23.20;59.70
19060;DHT22;9663;48.996;8.334;2023-05-10T11:08:28;21.70;59.10
19060;DHT22;9663;48.996;8.334;2023-05-10T11:13:34;22.30;58.80
19060;DHT22;9663;48.996;8.334;2023-05-10T11:16:12;22.00;58.30
19060;DHT22;9663;48.996;8.334;2023-05-10T11:18:54;21.70;57.10
19060;DHT22;9663;48.996;8.334;2023-05-10T11:21:33;22.20;56.80
19060;DHT22;9663;48.996;8.334;2023-05-10T11:24:00;22.00;56.80
19060;DHT22;9663;48.996;8.334;2023-05-10T11:26:33;21.80;57.40
19060;DHT22;9663;48.996;8.334;2023-05-10T11:29:00;21.70;57.60
19060;DHT22;9663;48.996;8.334;2023-05-10T11:31:28;20.50;57.50
19060;DHT22;9663;48.996;8.334;2023-05-10T11:33:55;21.50;57.80
19060;DHT22;9663;48.996;8.334;2023-05-10T11:36:24;21.50;57.70
19060;DHT22;9663;48.996;8.334;2023-05-10T11:38:51;21.40;57.90
19060;DHT22;9663;48.996;8.334;2023-05-10T11:41:19;21.40;57.90
19060;DHT22;9663;48.996;8.334;2023-05-10T11:43:49;21.40;58.10
19060;DHT22;9663;48.996;8.334;2023-05-10T11:46:19;21.40;58.20
19060;DHT22;9663;48.996;8.334;2023-05-10T11:48:51;21.50;57.10
19060;DHT22;9663;48.996;8.334;2023-05-10T11:51:22;21.40;57.00
19060;DHT22;9663;48.996;8.334;2023-05-10T11:53:52;21.50;56.70
19060;DHT22;9663;48.996;8.334;2023-05-10T11:56:19;21.40;56.60
19060;DHT22;9663;48.996;8.334;2023-05-10T11:58:51;21.30;56.60
19060;DHT22;9663;48.996;8.334;2023-05-10T12:01:18;21.30;56.30
19060;DHT22;9663;48.996;8.334;2023-05-10T12:03:44;21.30;56.90
19060;DHT22;9663;48.996;8.334;2023-05-10T12:06:10;21.30;57.20
19060;DHT22;9663;48.996;8.334;2023-05-10T12:08:36;22.30;57.80
19060;DHT22;9663;48.996;8.334;2023-05-10T12:11:07;21.70;57.90
19060;DHT22;9663;48.996;8.334;2023-05-10T12:13:39;21.90;56.90
19060;DHT22;9663;48.996;8.334;2023-05-10T12:16:13;22.20;56.20
19060;DHT22;9663;48.996;8.334;2023-05-10T12:18:41;22.50;55.70
19060;DHT22;9663;48.996;8.334;2023-05-10T12:21:11;22.70;55.90
19060;DHT22;9663;48.996;8.334;2023-05-10T12:23:38;22.90;55.90
19060;DHT22;9663;48.996;8.334;2023-05-10T12:26:05;23.10;55.50
19060;DHT22;9663;48.996;8.334;2023-05-10T12:28:32;23.20;55.10
19060;DHT22;9663;48.996;8.334;2023-05-10T12:31:02;23.30;54.40
19060;DHT22;9663;48.996;8.334;2023-05-10T12:33:38;23.40;54.00
19060;DHT22;9663;48.996;8.334;2023-05-10T12:36:23;23.50;52.50
19060;DHT22;9663;48.996;8.334;2023-05-10T12:38:49;23.70;52.70
19060;DHT22;9663;48.996;8.334;2023-05-10T12:41:16;23.90;54.10
19060;DHT22;9663;48.996;8.334;2023-05-10T12:43:43;24.00;52.80
19060;DHT22;9663;48.996;8.334;2023-05-10T12:46:16;24.10;52.90
19060;DHT22;9663;48.996;8.334;2023-05-10T12:48:43;24.10;53.00
19060;DHT22;9663;48.996;8.334;2023-05-10T12:51:10;24.20;53.30
19060;DHT22;9663;48.996;8.334;2023-05-10T12:53:42;24.50;53.60
19060;DHT22;9663;48.996;8.334;2023-05-10T12:56:08;24.70;53.50
19060;DHT22;9663;48.996;8.334;2023-05-10T12:58:34;24.70;52.30
19060;DHT22;9663;48.996;8.334;2023-05-10T13:01:00;25.20;52.50
19060;DHT22;9663;48.996;8.334;2023-05-10T13:03:26;25.20;51.80
19060;DHT22;9663;48.996;8.334;2023-05-10T13:05:52;25.20;51.10
19060;DHT22;9663;48.996;8.334;2023-05-10T13:08:17;24.90;50.90
19060;DHT22;9663;48.996;8.334;2023-05-10T13:10:43;24.80;51.20
19060;DHT22;9663;48.996;8.334;2023-05-10T13:13:09;24.60;51.20
19060;DHT22;9663;48.996;8.334;2023-05-10T13:15:35;24.50;51.00
19060;DHT22;9663;48.996;8.334;2023-05-10T13:18:03;24.40;51.50
19060;DHT22;9663;48.996;8.334;2023-05-10T13:20:28;24.50;51.50
19060;DHT22;9663;48.996;8.334;2023-05-10T13:22:54;24.60;52.00
19060;DHT22;9663;48.996;8.334;2023-05-10T13:25:20;24.60;51.60
19060;DHT22;9663;48.996;8.334;2023-05-10T13:27:45;24.70;51.70
19060;DHT22;9663;48.996;8.334;2023-05-10T13:30:11;24.70;51.20
19060;DHT22;9663;48.996;8.334;2023-05-10T13:32:38;24.70;50.90
19060;DHT22;9663;48.996;8.334;2023-05-10T13:35:04;24.50;50.50
19060;DHT22;9663;48.996;8.334;2023-05-10T13:37:32;24.40;50.20
19060;DHT22;9663;48.996;8.334;2023-05-10T13:40:01;24.40;50.40
19060;DHT22;9663;48.996;8.334;2023-05-10T13:42:27;24.00;50.50
19060;DHT22;9663;48.996;8.334;2023-05-10T13:44:53;23.10;50.60
19060;DHT22;9663;48.996;8.334;2023-05-10T13:47:19;23.70;51.30
19060;DHT22;9663;48.996;8.334;2023-05-10T13:49:46;23.80;51.50
19060;DHT22;9663;48.996;8.334;2023-05-10T13:52:12;23.80;51.40
19060;DHT22;9663;48.996;8.334;2023-05-10T13:54:39;23.70;50.70
19060;DHT22;9663;48.996;8.334;2023-05-10T13:57:05;23.50;50.40
19060;DHT22;9663;48.996;8.334;2023-05-10T13:59:31;23.40;50.20
19060;DHT22;9663;48.996;8.334;2023-05-10T14:02:00;23.10;50.40
19060;DHT22;9663;48.996;8.334;2023-05-10T14:04:29;23.00;50.80
19060;DHT22;9663;48.996;8.334;2023-05-10T14:06:56;22.80;50.80
19060;DHT22;9663;48.996;8.334;2023-05-10T14:09:22;22.70;50.90
19060;DHT22;9663;48.996;8.334;2023-05-10T14:11:48;22.50;51.00
19060;DHT22;9663;48.996;8.334;2023-05-10T14:14:13;22.40;51.40
19060;DHT22;9663;48.996;8.334;2023-05-10T14:16:43;22.30;51.70
19060;DHT22;9663;48.996;8.334;2023-05-10T14:19:10;22.30;51.50
19060;DHT22;9663;48.996;8.334;2023-05-10T14:21:37;22.40;52.00
19060;DHT22;9663;48.996;8.334;2023-05-10T14:24:03;22.40;52.20
19060;DHT22;9663;48.996;8.334;2023-05-10T14:26:28;22.60;52.20
19060;DHT22;9663;48.996;8.334;2023-05-10T14:28:54;22.90;52.80
19060;DHT22;9663;48.996;8.334;2023-05-10T14:31:20;23.40;53.40
19060;DHT22;9663;48.996;8.334;2023-05-10T14:33:49;24.10;53.80
19060;DHT22;9663;48.996;8.334;2023-05-10T14:36:15;24.90;52.70
19060;DHT22;9663;48.996;8.334;2023-05-10T14:38:41;25.60;52.40
19060;DHT22;9663;48.996;8.334;2023-05-10T14:41:06;26.30;51.80
19060;DHT22;9663;48.996;8.334;2023-05-10T14:43:32;26.90;51.40
19060;DHT22;9663;48.996;8.334;2023-05-10T14:45:58;27.60;51.30
19060;DHT22;9663;48.996;8.334;2023-05-10T14:48:24;28.10;50.50
19060;DHT22;9663;48.996;8.334;2023-05-10T14:50:50;28.40;49.30
19060;DHT22;9663;48.996;8.334;2023-05-10T14:53:17;28.70;49.20
19060;DHT22;9663;48.996;8.334;2023-05-10T14:55:43;29.00;48.40
19060;DHT22;9663;48.996;8.334;2023-05-10T14:58:09;29.10;47.10
19060;DHT22;9663;48.996;8.334;2023-05-10T15:00:35;28.00;46.10
19060;DHT22;9663;48.996;8.334;2023-05-10T15:03:01;29.00;46.90
19060;DHT22;9663;48.996;8.334;2023-05-10T15:05:27;28.90;46.20
19060;DHT22;9663;48.996;8.334;2023-05-10T15:07:53;28.70;45.70
19060;DHT22;9663;48.996;8.334;2023-05-10T15:10:18;28.30;45.10
19060;DHT22;9663;48.996;8.334;2023-05-10T15:12:44;27.80;45.00
19060;DHT22;9663;48.996;8.334;2023-05-10T15:15:10;27.20;45.10
19060;DHT22;9663;48.996;8.334;2023-05-10T15:17:35;26.70;45.10
19060;DHT22;9663;48.996;8.334;2023-05-10T15:20:02;26.30;45.30
19060;DHT22;9663;48.996;8.334;2023-05-10T15:22:29;25.90;45.90
19060;DHT22;9663;48.996;8.334;2023-05-10T15:24:57;25.60;46.50
19060;DHT22;9663;48.996;8.334;2023-05-10T15:27:26;25.50;46.60
19060;DHT22;9663;48.996;8.334;2023-05-10T15:29:52;25.40;46.60
19060;DHT22;9663;48.996;8.334;2023-05-10T15:32:18;25.40;47.60
19060;DHT22;9663;48.996;8.334;2023-05-10T15:34:44;25.80;48.20
19060;DHT22;9663;48.996;8.334;2023-05-10T15:37:09;25.80;48.20
19060;DHT22;9663;48.996;8.334;2023-05-10T15:39:35;26.10;47.50
19060;DHT22;9663;48.996;8.334;2023-05-10T15:42:01;26.20;45.90
19060;DHT22;9663;48.996;8.334;2023-05-10T15:44:28;26.00;45.40
19060;DHT22;9663;48.996;8.334;2023-05-10T15:46:54;25.80;45.10
19060;DHT22;9663;48.996;8.334;2023-05-10T15:49:20;25.50;45.30
19060;DHT22;9663;48.996;8.334;2023-05-10T15:51:46;25.40;46.30
19060;DHT22;9663;48.996;8.334;2023-05-10T15:54:11;25.20;45.10
19060;DHT22;9663;48.996;8.334;2023-05-10T15:56:37;25.00;45.70
19060;DHT22;9663;48.996;8.334;2023-05-10T15:59:03;24.90;46.20
19060;DHT22;9663;48.996;8.334;2023-05-10T16:01:30;25.10;46.70
19060;DHT22;9663;48.996;8.334;2023-05-10T16:03:57;25.20;47.00
19060;DHT22;9663;48.996;8.334;2023-05-10T16:06:23;25.40;46.50
19060;DHT22;9663;48.996;8.334;2023-05-10T16:08:48;25.40;46.10
19060;DHT22;9663;48.996;8.334;2023-05-10T16:11:14;25.60;45.40
19060;DHT22;9663;48.996;8.334;2023-05-10T16:13:40;25.40;44.90
19060;DHT22;9663;48.996;8.334;2023-05-10T16:16:06;25.00;44.90
19060;DHT22;9663;48.996;8.334;2023-05-10T16:18:33;24.70;44.70
19060;DHT22;9663;48.996;8.334;2023-05-10T16:21:00;24.30;44.90
19060;DHT22;9663;48.996;8.334;2023-05-10T16:23:26;24.10;45.30